Terminal Aerodrome Forecast
Issued by NWS

Home | Current Version | Previous Version | Text Only | Print | Product List | Glossary On
Versions: 1 2 3 4 5 6 7 8 9 10 11 12 13 14 15
733
FTUS41 KAKQ 272037 AAA
TAFPHF
TAF AMD
KPHF 272037Z 2721/2818 VRB03KT P6SM VCSH SCT015 SCT045
     FM280000 11003KT P6SM OVC012
     FM280800 VRB02KT 2SM BR OVC008
     FM281300 13004KT 5SM BR BKN025=

USA.gov is the U.S. government's official web portal to all federal, state and local government web resources and services.